Time;durP1;ratioP1;P1;durP2;ratioP2;P2;SDS_P1;SDS_P2;PMS_P1;PMS_P2;Temp;Humidity;BMP_temperature;BMP_pressure;BME280_temperature;BME280_humidity;BME280_pressure;Samples;Min_cycle;Max_cycle;Signal;HPM_P1;HPM_P2
2022/07/03 00:00:33;;;;;;;;;;;24.20;46.00;;;;;;5055287;28;19952;-78
2022/07/03 00:02:59;;;;;;;;;;;24.20;46.00;;;;;;5055162;28;20355;-78
2022/07/03 00:05:25;;;;;;;;;;;24.20;46.30;;;;;;5055427;28;19909;-78
2022/07/03 00:07:50;;;;;;;;;;;24.20;46.00;;;;;;5037153;28;19913;-78
2022/07/03 00:10:16;;;;;;;;;;;24.10;46.30;;;;;;5054857;28;19963;-77
2022/07/03 00:12:42;;;;;;;;;;;24.00;46.00;;;;;;5037144;28;19909;-77
2022/07/03 00:15:07;;;;;;;;;;;24.00;46.00;;;;;;5054908;28;19909;-76
2022/07/03 00:17:33;;;;;;;;;;;24.00;45.80;;;;;;5054413;28;20244;-78
2022/07/03 00:19:58;;;;;;;;;;;24.00;46.00;;;;;;5054652;28;19913;-77
2022/07/03 00:22:25;;;;;;;;;;;24.00;46.40;;;;;;5054638;28;19971;-77
2022/07/03 00:24:53;;;;;;;;;;;23.90;46.00;;;;;;5055019;28;19919;-77
2022/07/03 00:27:19;;;;;;;;;;;23.90;46.30;;;;;;5036581;28;20318;-77
2022/07/03 00:29:45;;;;;;;;;;;23.80;46.50;;;;;;5037034;28;19956;-77
2022/07/03 00:32:12;;;;;;;;;;;23.80;46.60;;;;;;5054469;28;19952;-77
2022/07/03 00:34:39;;;;;;;;;;;23.70;46.30;;;;;;5054767;28;19909;-77
2022/07/03 00:37:05;;;;;;;;;;;23.70;46.70;;;;;;5054230;28;19921;-77
2022/07/03 00:39:32;;;;;;;;;;;23.70;47.00;;;;;;5054869;28;19959;-77
2022/07/03 00:42:00;;;;;;;;;;;23.60;47.20;;;;;;5054258;28;20007;-76
2022/07/03 00:44:27;;;;;;;;;;;23.50;46.70;;;;;;5054050;28;20425;-77
2022/07/03 00:46:54;;;;;;;;;;;23.50;46.60;;;;;;5054360;28;19920;-77
2022/07/03 00:49:20;;;;;;;;;;;23.50;46.10;;;;;;5054562;28;19909;-77
2022/07/03 00:51:50;;;;;;;;;;;23.40;46.40;;;;;;5054231;28;19909;-77
2022/07/03 00:54:17;;;;;;;;;;;23.50;46.60;;;;;;5054051;28;20438;-77
2022/07/03 00:56:46;;;;;;;;;;;23.40;46.50;;;;;;5036472;28;19913;-78
2022/07/03 00:59:11;;;;;;;;;;;23.50;46.90;;;;;;5053748;28;19917;-78
2022/07/03 01:01:38;;;;;;;;;;;23.50;46.20;;;;;;5053636;28;19932;-76
2022/07/03 01:04:18;;;;;;;;;;;23.50;46.50;;;;;;5053925;28;19932;-76
2022/07/03 01:06:49;;;;;;;;;;;23.60;46.70;;;;;;5036534;28;20302;-77
2022/07/03 01:09:16;;;;;;;;;;;23.60;46.30;;;;;;5054072;28;20355;-78
2022/07/03 01:11:52;;;;;;;;;;;23.70;46.50;;;;;;5036188;28;19909;-77
2022/07/03 01:14:18;;;;;;;;;;;23.70;46.30;;;;;;5036173;28;19915;-77
2022/07/03 01:16:51;;;;;;;;;;;23.70;46.30;;;;;;5054173;28;19912;-78
2022/07/03 01:19:16;;;;;;;;;;;23.60;46.80;;;;;;5053960;28;19959;-77
2022/07/03 01:21:50;;;;;;;;;;;23.60;46.60;;;;;;5053941;28;19959;-78
2022/07/03 01:24:23;;;;;;;;;;;23.50;46.00;;;;;;5053669;28;19971;-77
2022/07/03 01:26:50;;;;;;;;;;;23.40;46.80;;;;;;5035971;28;19909;-78
2022/07/03 01:29:21;;;;;;;;;;;23.40;46.90;;;;;;5054357;28;19909;-77
2022/07/03 01:31:47;;;;;;;;;;;23.30;46.50;;;;;;5054571;28;20395;-77
2022/07/03 01:34:16;;;;;;;;;;;23.20;46.70;;;;;;5054757;28;19920;-77
2022/07/03 01:36:42;;;;;;;;;;;23.20;46.00;;;;;;5035734;28;19971;-77
2022/07/03 01:39:09;;;;;;;;;;;23.10;47.50;;;;;;5053781;28;19966;-76
2022/07/03 01:41:36;;;;;;;;;;;23.00;47.10;;;;;;5039459;28;19913;-77
2022/07/03 01:44:02;;;;;;;;;;;23.00;47.70;;;;;;5057696;28;19912;-77
2022/07/03 01:46:28;;;;;;;;;;;22.90;48.00;;;;;;5057442;28;20026;-78
2022/07/03 01:48:54;;;;;;;;;;;22.90;47.30;;;;;;5039630;28;20047;-76
2022/07/03 01:51:20;;;;;;;;;;;22.90;47.30;;;;;;5057673;28;20312;-77
2022/07/03 01:53:47;;;;;;;;;;;22.90;47.60;;;;;;5039696;28;19952;-78
2022/07/03 01:56:13;;;;;;;;;;;22.90;47.20;;;;;;5057614;28;19916;-76
2022/07/03 01:58:39;;;;;;;;;;;23.00;47.80;;;;;;5057500;28;20355;-78
2022/07/03 02:01:07;;;;;;;;;;;23.10;47.20;;;;;;5057466;28;19943;-77
2022/07/03 02:03:34;;;;;;;;;;;23.10;47.00;;;;;;5039745;28;20394;-78
2022/07/03 02:05:59;;;;;;;;;;;23.20;47.00;;;;;;5057320;28;19917;-77
2022/07/03 02:08:51;;;;;;;;;;;23.20;46.90;;;;;;5039813;28;20022;-76
2022/07/03 02:11:18;;;;;;;;;;;23.30;47.20;;;;;;5053225;28;20251;-77
2022/07/03 02:13:47;;;;;;;;;;;23.30;46.90;;;;;;5056959;28;19931;-77
2022/07/03 02:16:16;;;;;;;;;;;23.30;46.90;;;;;;5039232;28;19909;-77
2022/07/03 02:18:42;;;;;;;;;;;23.40;46.90;;;;;;5039047;28;19917;-77
2022/07/03 02:21:15;;;;;;;;;;;23.40;46.80;;;;;;5057124;28;19913;-77
2022/07/03 02:23:46;;;;;;;;;;;23.30;46.80;;;;;;5057474;28;19919;-77
2022/07/03 02:26:16;;;;;;;;;;;23.30;46.80;;;;;;5057109;28;19962;-77
2022/07/03 02:28:44;;;;;;;;;;;23.40;47.00;;;;;;5056665;28;20279;-78
2022/07/03 02:31:11;;;;;;;;;;;23.40;46.90;;;;;;5056706;28;19937;-77
2022/07/03 02:33:38;;;;;;;;;;;23.40;47.00;;;;;;5056852;28;19913;-77
2022/07/03 02:36:05;;;;;;;;;;;23.40;47.00;;;;;;5056613;28;19913;-77
2022/07/03 02:38:30;;;;;;;;;;;23.40;47.10;;;;;;5056544;28;19931;-77
2022/07/03 02:41:12;;;;;;;;;;;23.40;47.00;;;;;;5056490;28;19913;-77
2022/07/03 02:43:57;;;;;;;;;;;23.40;47.00;;;;;;5056705;28;19909;-78
2022/07/03 02:46:49;;;;;;;;;;;23.40;47.00;;;;;;5056881;28;20248;-77
2022/07/03 02:49:15;;;;;;;;;;;23.50;47.00;;;;;;5056601;28;19920;-77
2022/07/03 02:51:44;;;;;;;;;;;23.50;47.00;;;;;;5056149;28;20278;-77
2022/07/03 02:54:13;;;;;;;;;;;23.50;46.80;;;;;;5056462;28;19912;-77
2022/07/03 02:56:57;;;;;;;;;;;23.50;47.00;;;;;;5056073;28;19909;-77
2022/07/03 02:59:46;;;;;;;;;;;23.50;46.90;;;;;;5056264;28;19917;-77
2022/07/03 03:02:19;;;;;;;;;;;23.50;47.00;;;;;;5045417;28;19916;-77
2022/07/03 03:04:48;;;;;;;;;;;23.50;47.00;;;;;;5056187;28;20028;-77
2022/07/03 03:07:14;;;;;;;;;;;23.50;47.00;;;;;;5055981;28;19963;-77
2022/07/03 03:09:41;;;;;;;;;;;23.50;47.20;;;;;;5038113;28;19956;-78
2022/07/03 03:12:08;;;;;;;;;;;23.50;47.10;;;;;;5056071;28;20362;-77
2022/07/03 03:14:44;;;;;;;;;;;23.50;47.60;;;;;;5056096;28;19909;-78
2022/07/03 03:17:16;;;;;;;;;;;23.50;47.50;;;;;;5038454;28;20266;-77
2022/07/03 03:19:45;;;;;;;;;;;23.50;47.50;;;;;;5056415;28;19912;-78
2022/07/03 03:22:20;;;;;;;;;;;23.50;47.70;;;;;;5055695;28;19913;-76
2022/07/03 03:24:45;;;;;;;;;;;23.50;47.90;;;;;;5055589;28;19912;-77
2022/07/03 03:27:11;;;;;;;;;;;23.50;47.70;;;;;;5055748;28;20318;-78
2022/07/03 03:29:37;;;;;;;;;;;23.50;47.90;;;;;;5055777;28;19916;-77
2022/07/03 03:32:03;;;;;;;;;;;23.50;47.50;;;;;;5056184;28;20417;-78
2022/07/03 03:34:29;;;;;;;;;;;23.50;47.70;;;;;;5055675;28;19959;-77
2022/07/03 03:36:55;;;;;;;;;;;23.50;47.60;;;;;;5056070;28;19921;-77
2022/07/03 03:39:21;;;;;;;;;;;23.60;48.70;;;;;;5056586;28;19920;-77
2022/07/03 03:41:46;;;;;;;;;;;23.60;47.50;;;;;;5055345;28;20036;-78
2022/07/03 03:44:12;;;;;;;;;;;23.60;47.80;;;;;;5055895;28;19909;-77
2022/07/03 03:46:37;;;;;;;;;;;23.60;47.50;;;;;;5055689;28;19909;-77
2022/07/03 03:49:03;;;;;;;;;;;23.70;47.50;;;;;;5055443;28;19917;-76
2022/07/03 03:51:28;;;;;;;;;;;23.70;47.50;;;;;;5055305;28;19909;-77
2022/07/03 03:53:54;;;;;;;;;;;23.70;47.50;;;;;;5055192;28;19916;-77
2022/07/03 03:56:19;;;;;;;;;;;23.70;47.50;;;;;;5054900;28;19940;-77
2022/07/03 03:58:45;;;;;;;;;;;23.70;47.70;;;;;;5056014;28;19965;-78
2022/07/03 04:01:11;;;;;;;;;;;23.80;47.50;;;;;;5055828;28;19924;-77
2022/07/03 04:03:37;;;;;;;;;;;23.90;47.50;;;;;;5038872;28;19909;-77
2022/07/03 04:06:02;;;;;;;;;;;23.90;47.40;;;;;;5055257;28;19909;-77
2022/07/03 04:08:28;;;;;;;;;;;23.90;47.40;;;;;;5054770;28;19916;-78
2022/07/03 04:10:54;;;;;;;;;;;24.00;47.30;;;;;;5054660;28;19909;-77
2022/07/03 04:13:20;;;;;;;;;;;24.00;47.20;;;;;;5055000;28;19909;-77
2022/07/03 04:15:46;;;;;;;;;;;24.00;47.30;;;;;;5054888;28;19963;-77
2022/07/03 04:18:12;;;;;;;;;;;24.00;47.00;;;;;;5054579;28;19913;-77
2022/07/03 04:20:37;;;;;;;;;;;24.10;47.20;;;;;;5054726;28;19919;-77
2022/07/03 04:23:03;;;;;;;;;;;24.10;47.20;;;;;;5054858;28;19916;-77
2022/07/03 04:25:29;;;;;;;;;;;24.10;47.10;;;;;;5054474;28;20279;-77
2022/07/03 04:27:54;;;;;;;;;;;24.20;47.00;;;;;;5054428;28;19962;-77
2022/07/03 04:30:20;;;;;;;;;;;24.20;46.90;;;;;;5054876;28;20063;-77
2022/07/03 04:32:47;;;;;;;;;;;24.20;46.80;;;;;;5036845;28;19916;-78
2022/07/03 04:35:13;;;;;;;;;;;24.20;46.80;;;;;;5054743;28;19924;-77
2022/07/03 04:37:38;;;;;;;;;;;24.20;46.60;;;;;;5056186;28;20115;-77
2022/07/03 04:40:04;;;;;;;;;;;24.20;46.70;;;;;;5055917;28;19916;-77
2022/07/03 04:42:30;;;;;;;;;;;24.30;46.80;;;;;;5054502;28;19909;-78
2022/07/03 04:44:55;;;;;;;;;;;24.40;46.90;;;;;;5054760;28;20433;-77
2022/07/03 04:47:21;;;;;;;;;;;24.40;46.60;;;;;;5054043;28;19920;-77
2022/07/03 04:49:46;;;;;;;;;;;24.40;46.50;;;;;;5054665;28;20286;-78
2022/07/03 04:52:12;;;;;;;;;;;24.40;46.60;;;;;;5054170;28;19915;-77
2022/07/03 04:54:38;;;;;;;;;;;24.50;46.70;;;;;;5054186;28;19963;-77
2022/07/03 04:57:03;;;;;;;;;;;24.50;46.60;;;;;;5053993;28;19909;-77
2022/07/03 04:59:29;;;;;;;;;;;24.50;46.90;;;;;;5054121;28;19909;-78
2022/07/03 05:01:55;;;;;;;;;;;24.50;46.80;;;;;;5054651;28;19962;-77
2022/07/03 05:04:20;;;;;;;;;;;24.60;47.00;;;;;;5053702;28;19912;-77
2022/07/03 05:06:46;;;;;;;;;;;24.60;46.80;;;;;;5053973;28;19950;-78
2022/07/03 05:09:12;;;;;;;;;;;24.60;46.90;;;;;;5054058;28;19956;-77
2022/07/03 05:11:37;;;;;;;;;;;24.70;47.10;;;;;;5054332;28;19913;-77
2022/07/03 05:14:03;;;;;;;;;;;24.70;46.90;;;;;;5054028;28;19996;-78
2022/07/03 05:16:29;;;;;;;;;;;24.70;46.90;;;;;;5053734;28;19932;-78
2022/07/03 05:18:54;;;;;;;;;;;24.80;47.00;;;;;;5053853;28;20259;-78
2022/07/03 05:21:20;;;;;;;;;;;24.80;47.00;;;;;;5054063;28;20358;-78
2022/07/03 05:23:45;;;;;;;;;;;24.80;47.10;;;;;;5053728;28;19956;-78
2022/07/03 05:26:11;;;;;;;;;;;24.90;47.10;;;;;;5053829;28;19909;-79
2022/07/03 05:28:37;;;;;;;;;;;24.90;47.10;;;;;;5054046;28;20020;-78
2022/07/03 05:31:02;;;;;;;;;;;24.90;47.20;;;;;;5036486;28;19952;-80
2022/07/03 05:33:28;;;;;;;;;;;25.00;47.30;;;;;;5035894;28;19913;-78
2022/07/03 05:35:56;;;;;;;;;;;25.00;47.30;;;;;;5053679;28;19908;-79
2022/07/03 05:41:06;;;;;;;;;;;25.10;47.20;;;;;;5054096;28;20370;-79
2022/07/03 05:43:32;;;;;;;;;;;25.20;47.30;;;;;;5035826;28;19909;-78
2022/07/03 05:45:57;;;;;;;;;;;25.20;47.40;;;;;;5053391;28;19923;-77
2022/07/03 05:48:23;;;;;;;;;;;25.20;47.30;;;;;;5053343;28;19913;-78
2022/07/03 05:50:48;;;;;;;;;;;25.20;47.20;;;;;;5035418;28;19909;-78
2022/07/03 05:53:14;;;;;;;;;;;25.30;47.30;;;;;;5054122;28;19967;-78
2022/07/03 05:55:40;;;;;;;;;;;25.30;47.30;;;;;;5053663;28;20378;-78
2022/07/03 05:58:05;;;;;;;;;;;25.30;47.20;;;;;;5053506;28;19987;-78
2022/07/03 06:00:31;;;;;;;;;;;25.40;47.30;;;;;;5036470;28;19912;-77
2022/07/03 06:02:56;;;;;;;;;;;25.40;47.20;;;;;;5053875;28;19916;-77
2022/07/03 06:05:22;;;;;;;;;;;25.40;46.90;;;;;;5053702;28;19955;-77
2022/07/03 06:07:48;;;;;;;;;;;25.50;47.20;;;;;;5053405;28;19912;-79
2022/07/03 06:10:14;;;;;;;;;;;25.50;47.00;;;;;;5035376;28;19909;-78
2022/07/03 06:12:39;;;;;;;;;;;25.50;47.20;;;;;;5053344;28;19916;-77
2022/07/03 06:15:05;;;;;;;;;;;25.50;47.00;;;;;;5053229;28;20347;-77
2022/07/03 06:17:31;;;;;;;;;;;25.50;47.00;;;;;;5053446;28;19920;-77
2022/07/03 06:19:56;;;;;;;;;;;25.60;46.80;;;;;;5053160;28;19915;-78
2022/07/03 06:22:22;;;;;;;;;;;25.50;46.50;;;;;;5053361;28;19913;-77
2022/07/03 06:24:47;;;;;;;;;;;25.60;46.40;;;;;;5053139;28;19909;-79
2022/07/03 06:27:13;;;;;;;;;;;25.60;45.90;;;;;;5057456;28;19909;-77
2022/07/03 06:29:38;;;;;;;;;;;25.70;46.00;;;;;;5057850;28;19916;-77
2022/07/03 06:32:04;;;;;;;;;;;25.70;45.50;;;;;;5056816;28;19909;-77
2022/07/03 06:34:30;;;;;;;;;;;25.60;45.20;;;;;;5056780;28;19909;-78
2022/07/03 06:36:55;;;;;;;;;;;25.60;45.20;;;;;;5056595;28;20059;-78
2022/07/03 06:39:21;;;;;;;;;;;25.60;44.80;;;;;;5056731;28;20256;-78
2022/07/03 06:41:46;;;;;;;;;;;24.10;43.70;;;;;;5056605;28;19955;-78
2022/07/03 06:44:12;;;;;;;;;;;25.70;44.90;;;;;;5056388;28;19916;-78
2022/07/03 06:46:37;;;;;;;;;;;25.70;44.80;;;;;;5056437;28;19908;-78
2022/07/03 06:49:03;;;;;;;;;;;25.80;44.60;;;;;;5057467;28;19924;-78
2022/07/03 06:51:28;;;;;;;;;;;25.80;44.60;;;;;;5039212;28;19960;-77
2022/07/03 06:53:54;;;;;;;;;;;25.80;44.50;;;;;;5038806;28;19913;-78
2022/07/03 06:56:19;;;;;;;;;;;25.80;44.30;;;;;;5056332;28;19920;-79
2022/07/03 06:58:45;;;;;;;;;;;25.90;44.20;;;;;;5056456;28;19921;-79
2022/07/03 07:01:11;;;;;;;;;;;25.90;44.00;;;;;;5056366;28;19995;-78
2022/07/03 07:03:36;;;;;;;;;;;25.90;44.00;;;;;;5056076;28;20004;-78
2022/07/03 07:06:02;;;;;;;;;;;25.90;44.00;;;;;;5038005;28;19962;-78
2022/07/03 07:08:27;;;;;;;;;;;25.90;43.90;;;;;;5056431;28;19915;-78
2022/07/03 07:10:53;;;;;;;;;;;25.90;43.70;;;;;;5056318;28;19915;-79
2022/07/03 07:13:19;;;;;;;;;;;25.90;43.70;;;;;;5056299;28;19952;-78
2022/07/03 07:15:44;;;;;;;;;;;25.90;43.80;;;;;;5037731;28;19995;-78
2022/07/03 07:18:10;;;;;;;;;;;26.00;43.70;;;;;;5037787;28;19924;-79
2022/07/03 07:20:35;;;;;;;;;;;26.00;43.30;;;;;;5055742;28;20010;-78
2022/07/03 07:23:01;;;;;;;;;;;26.00;43.30;;;;;;5055756;28;19909;-79
2022/07/03 07:25:26;;;;;;;;;;;26.00;43.70;;;;;;5038247;28;20040;-79
2022/07/03 07:27:52;;;;;;;;;;;26.00;43.60;;;;;;5055976;28;19909;-78
2022/07/03 07:30:17;;;;;;;;;;;26.00;43.50;;;;;;5056045;28;19909;-78
2022/07/03 07:32:43;;;;;;;;;;;26.00;43.30;;;;;;5055384;28;20359;-78
2022/07/03 07:35:09;;;;;;;;;;;26.00;43.60;;;;;;5055490;28;19920;-77
2022/07/03 07:37:34;;;;;;;;;;;26.00;44.20;;;;;;5036482;28;19921;-78
2022/07/03 07:40:00;;;;;;;;;;;26.00;44.10;;;;;;5055509;28;19940;-77
2022/07/03 07:42:27;;;;;;;;;;;26.10;44.20;;;;;;5056151;28;19909;-77
2022/07/03 07:44:53;;;;;;;;;;;26.00;44.10;;;;;;5055693;28;20302;-77
2022/07/03 07:47:19;;;;;;;;;;;26.10;44.20;;;;;;5055381;28;19913;-78
2022/07/03 07:49:44;;;;;;;;;;;26.10;44.30;;;;;;5054907;28;19913;-78
2022/07/03 07:52:10;;;;;;;;;;;26.10;44.30;;;;;;5055393;28;20322;-79
2022/07/03 07:54:35;;;;;;;;;;;26.10;44.40;;;;;;5054928;28;19955;-78
2022/07/03 07:57:01;;;;;;;;;;;26.20;44.50;;;;;;5055117;28;19909;-78
2022/07/03 07:59:27;;;;;;;;;;;26.20;44.40;;;;;;5055650;28;19916;-77
2022/07/03 08:07:20;;;;;;;;;;;26.20;44.30;;;;;;5055038;28;19915;-78
2022/07/03 08:09:46;;;;;;;;;;;26.20;44.40;;;;;;5054822;28;19908;-79
2022/07/03 08:12:11;;;;;;;;;;;26.20;44.60;;;;;;5054756;28;19962;-78
2022/07/03 08:14:37;;;;;;;;;;;26.30;44.80;;;;;;5054772;28;19909;-78
2022/07/03 08:17:04;;;;;;;;;;;26.30;44.80;;;;;;5055285;28;19963;-79
2022/07/03 08:19:29;;;;;;;;;;;26.20;44.80;;;;;;5036716;28;20374;-78
2022/07/03 08:21:55;;;;;;;;;;;26.30;44.90;;;;;;5056222;28;19964;-77
2022/07/03 08:24:20;;;;;;;;;;;26.30;45.00;;;;;;5055149;28;20006;-79
2022/07/03 08:26:46;;;;;;;;;;;26.30;44.90;;;;;;5054729;28;19908;-79
2022/07/03 08:29:12;;;;;;;;;;;26.20;44.70;;;;;;5054380;28;19909;-78
2022/07/03 08:31:37;;;;;;;;;;;26.20;44.80;;;;;;5054537;28;19912;-78
2022/07/03 08:34:03;;;;;;;;;;;26.20;44.80;;;;;;5054608;28;19916;-78
2022/07/03 08:36:28;;;;;;;;;;;26.20;44.70;;;;;;5054409;28;19929;-79
2022/07/03 08:38:56;;;;;;;;;;;26.20;44.90;;;;;;5037330;28;20248;-79
2022/07/03 08:41:22;;;;;;;;;;;26.20;44.90;;;;;;5054554;28;19909;-81
2022/07/03 08:43:49;;;;;;;;;;;26.20;44.90;;;;;;5054350;28;19909;-78
2022/07/03 08:46:15;;;;;;;;;;;26.30;45.00;;;;;;5054584;28;19936;-78
2022/07/03 08:48:41;;;;;;;;;;;26.30;45.00;;;;;;5054110;28;19916;-79
2022/07/03 08:51:08;;;;;;;;;;;26.30;45.00;;;;;;5054254;28;19909;-78
2022/07/03 08:53:34;;;;;;;;;;;26.30;45.00;;;;;;5037380;28;19908;-78
2022/07/03 08:56:00;;;;;;;;;;;26.30;45.00;;;;;;5037697;28;19916;-78
2022/07/03 08:58:28;;;;;;;;;;;26.40;45.00;;;;;;5054269;28;20466;-80
2022/07/03 09:00:53;;;;;;;;;;;26.40;45.00;;;;;;5054392;28;19915;-77
2022/07/03 09:03:19;;;;;;;;;;;26.40;44.90;;;;;;5054101;28;19909;-78
2022/07/03 09:05:46;;;;;;;;;;;26.40;44.80;;;;;;5054318;28;19909;-78
2022/07/03 09:08:12;;;;;;;;;;;26.50;44.70;;;;;;5053884;28;19956;-79
2022/07/03 09:10:37;;;;;;;;;;;26.50;44.90;;;;;;5035833;28;19909;-78
2022/07/03 09:13:03;;;;;;;;;;;26.40;44.50;;;;;;5053617;28;19908;-79
2022/07/03 09:15:29;;;;;;;;;;;26.40;44.50;;;;;;5035791;28;20011;-78
2022/07/03 09:18:00;;;;;;;;;;;26.50;44.50;;;;;;5036088;28;19923;-77
2022/07/03 09:20:32;;;;;;;;;;;26.50;44.40;;;;;;5054046;28;19909;-78
2022/07/03 09:23:13;;;;;;;;;;;26.50;44.40;;;;;;5054031;28;20389;-78
2022/07/03 09:25:57;;;;;;;;;;;26.50;44.50;;;;;;5053878;28;20287;-79
2022/07/03 09:28:24;;;;;;;;;;;26.60;44.50;;;;;;5054508;28;20330;-79
2022/07/03 09:30:56;;;;;;;;;;;25.60;43.70;;;;;;5054286;28;19909;-79
2022/07/03 09:33:22;;;;;;;;;;;26.60;44.50;;;;;;5055080;28;19908;-79
2022/07/03 09:35:52;;;;;;;;;;;26.60;44.00;;;;;;5053841;28;20462;-78
2022/07/03 09:38:17;;;;;;;;;;;26.70;43.90;;;;;;5054281;28;19921;-79
2022/07/03 09:40:47;;;;;;;;;;;26.70;43.60;;;;;;5053669;28;19923;-78
2022/07/03 09:43:12;;;;;;;;;;;26.70;44.00;;;;;;5054067;28;19979;-78
2022/07/03 09:45:54;;;;;;;;;;;26.70;44.10;;;;;;5054059;28;19909;-77
2022/07/03 09:48:21;;;;;;;;;;;26.70;43.40;;;;;;5053728;28;20252;-78
2022/07/03 09:50:46;;;;;;;;;;;26.80;43.20;;;;;;5055146;28;19986;-79
2022/07/03 09:53:12;;;;;;;;;;;26.90;43.30;;;;;;5053704;28;20346;-78
2022/07/03 09:55:37;;;;;;;;;;;26.90;43.10;;;;;;5053724;28;20453;-78
2022/07/03 09:58:03;;;;;;;;;;;26.90;43.40;;;;;;5054387;28;19917;-79
2022/07/03 10:00:30;;;;;;;;;;;27.00;43.10;;;;;;5035996;28;19948;-78
2022/07/03 10:02:56;;;;;;;;;;;27.00;42.50;;;;;;5057977;28;20007;-79
2022/07/03 10:05:23;;;;;;;;;;;27.10;42.20;;;;;;5057578;28;19909;-78
2022/07/03 10:07:53;;;;;;;;;;;27.10;42.20;;;;;;5039505;28;20347;-80
2022/07/03 10:10:20;;;;;;;;;;;27.20;41.50;;;;;;5057284;28;19931;-79
2022/07/03 10:12:47;;;;;;;;;;;27.20;41.20;;;;;;5057441;28;19956;-79
2022/07/03 10:15:14;;;;;;;;;;;27.20;41.00;;;;;;5057341;28;19916;-77
2022/07/03 10:17:40;;;;;;;;;;;27.30;42.00;;;;;;5057265;28;20327;-78
2022/07/03 10:20:06;;;;;;;;;;;26.20;41.20;;;;;;5057705;28;19913;-78
2022/07/03 10:22:33;;;;;;;;;;;27.30;41.20;;;;;;5056961;28;20003;-79
2022/07/03 10:24:59;;;;;;;;;;;27.40;41.40;;;;;;5057082;28;19916;-80
2022/07/03 10:27:25;;;;;;;;;;;27.50;41.60;;;;;;5057015;28;20394;-80
2022/07/03 10:29:52;;;;;;;;;;;27.50;41.60;;;;;;5057017;28;19960;-78
2022/07/03 10:32:17;;;;;;;;;;;27.60;40.90;;;;;;5056874;28;20058;-79
2022/07/03 10:34:44;;;;;;;;;;;27.70;40.90;;;;;;5056794;28;20385;-77
2022/07/03 10:37:10;;;;;;;;;;;27.80;40.70;;;;;;5056589;28;19921;-79
2022/07/03 10:39:38;;;;;;;;;;;27.90;41.00;;;;;;5057196;28;20290;-79
2022/07/03 10:45:09;;;;;;;;;;;28.00;40.50;;;;;;5056582;28;19923;-80
2022/07/03 10:47:39;;;;;;;;;;;28.10;40.30;;;;;;5056055;28;19913;-79
2022/07/03 10:50:12;;;;;;;;;;;28.10;40.20;;;;;;5056685;28;19951;-79
2022/07/03 10:52:38;;;;;;;;;;;28.20;40.00;;;;;;5056774;28;19916;-81
2022/07/03 10:55:06;;;;;;;;;;;28.20;40.20;;;;;;5056469;28;19909;-79
2022/07/03 10:57:32;;;;;;;;;;;28.30;39.80;;;;;;5056502;28;19913;-81
2022/07/03 11:00:00;;;;;;;;;;;28.30;39.70;;;;;;5056057;28;19913;-79
2022/07/03 11:02:26;;;;;;;;;;;28.30;40.00;;;;;;5038607;28;19909;-79
2022/07/03 11:05:01;;;;;;;;;;;28.20;39.50;;;;;;5055954;28;19909;-79
2022/07/03 11:07:31;;;;;;;;;;;28.20;39.10;;;;;;5056339;28;19909;-78
2022/07/03 11:10:05;;;;;;;;;;;28.20;39.30;;;;;;5056032;28;19916;-78
2022/07/03 11:12:50;;;;;;;;;;;28.10;39.50;;;;;;5056476;28;20022;-79
2022/07/03 11:15:38;;;;;;;;;;;28.10;39.60;;;;;;5056255;28;19944;-80
2022/07/03 11:18:07;;;;;;;;;;;28.10;39.80;;;;;;5038173;28;19920;-78
2022/07/03 11:20:33;;;;;;;;;;;28.10;40.00;;;;;;5057535;28;19913;-78
2022/07/03 11:23:02;;;;;;;;;;;28.10;39.60;;;;;;5057440;28;19948;-78
2022/07/03 11:25:38;;;;;;;;;;;28.00;39.70;;;;;;5056140;28;20406;-79
2022/07/03 11:28:03;;;;;;;;;;;28.00;38.90;;;;;;5055695;28;19909;-78
2022/07/03 11:30:29;;;;;;;;;;;28.10;39.50;;;;;;5056348;28;19909;-78
2022/07/03 11:32:57;;;;;;;;;;;28.00;39.40;;;;;;5038684;28;19909;-79
2022/07/03 11:35:42;;;;;;;;;;;28.00;38.50;;;;;;5038515;28;19913;-79
2022/07/03 11:38:07;;;;;;;;;;;28.00;39.50;;;;;;5056908;28;20011;-81
2022/07/03 11:40:35;;;;;;;;;;;28.10;39.30;;;;;;5039006;28;20002;-79
2022/07/03 11:43:01;;;;;;;;;;;28.00;38.80;;;;;;5055626;28;19959;-79
2022/07/03 11:45:30;;;;;;;;;;;28.10;38.90;;;;;;5055619;28;19920;-79
2022/07/03 11:47:55;;;;;;;;;;;28.10;39.00;;;;;;5038089;28;20267;-78
2022/07/03 11:50:35;;;;;;;;;;;28.20;38.40;;;;;;5059722;28;19920;-78
2022/07/03 11:53:14;;;;;;;;;;;28.20;39.80;;;;;;5056293;28;20430;-79
2022/07/03 11:56:06;;;;;;;;;;;28.20;38.70;;;;;;5055564;28;19963;-79
2022/07/03 11:58:48;;;;;;;;;;;28.30;39.20;;;;;;5034641;28;20286;-77
2022/07/03 12:01:26;;;;;;;;;;;28.30;38.90;;;;;;5055350;28;20066;-79
2022/07/03 12:04:02;;;;;;;;;;;28.40;38.90;;;;;;5054887;28;19912;-79
2022/07/03 12:06:33;;;;;;;;;;;28.50;39.00;;;;;;5055199;28;19909;-79
2022/07/03 12:08:58;;;;;;;;;;;28.50;39.00;;;;;;5055215;28;19909;-79
2022/07/03 12:11:24;;;;;;;;;;;28.60;39.00;;;;;;5054815;28;19915;-79
2022/07/03 12:13:52;;;;;;;;;;;28.60;38.30;;;;;;5042879;28;19916;-79
2022/07/03 12:16:18;;;;;;;;;;;28.70;38.80;;;;;;5038064;28;19909;-79
2022/07/03 12:18:43;;;;;;;;;;;28.70;38.80;;;;;;5054936;28;19916;-77
2022/07/03 12:21:09;;;;;;;;;;;28.90;39.00;;;;;;5054980;28;19932;-82
2022/07/03 12:23:43;;;;;;;;;;;28.90;39.00;;;;;;5054227;28;19909;-79
2022/07/03 12:26:08;;;;;;;;;;;29.00;38.90;;;;;;5054815;28;19955;-77
2022/07/03 12:28:34;;;;;;;;;;;29.00;36.40;;;;;;5054673;28;19909;-78
2022/07/03 12:30:59;;;;;;;;;;;29.00;37.20;;;;;;5054502;28;20023;-78
2022/07/03 12:33:25;;;;;;;;;;;29.10;37.70;;;;;;5054695;28;19962;-79
2022/07/03 12:36:06;;;;;;;;;;;29.20;37.40;;;;;;5054655;28;19920;-77
2022/07/03 12:38:33;;;;;;;;;;;29.30;37.60;;;;;;5054326;28;19921;-78
2022/07/03 12:41:09;;;;;;;;;;;29.40;38.20;;;;;;5054113;28;20481;-78
2022/07/03 12:43:42;;;;;;;;;;;29.60;37.70;;;;;;5054013;28;19908;-78
2022/07/03 12:46:18;;;;;;;;;;;29.70;37.50;;;;;;5054778;28;19916;-79
2022/07/03 12:48:48;;;;;;;;;;;29.90;37.40;;;;;;5054060;28;19917;-77
2022/07/03 12:51:14;;;;;;;;;;;30.00;37.40;;;;;;5054089;28;20248;-79
2022/07/03 12:53:41;;;;;;;;;;;30.10;37.50;;;;;;5054018;28;20363;-79
2022/07/03 12:56:07;;;;;;;;;;;30.20;37.40;;;;;;5036803;28;19908;-78
2022/07/03 13:01:24;;;;;;;;;;;30.30;37.10;;;;;;5058095;28;20390;-78
2022/07/03 13:03:50;;;;;;;;;;;30.40;36.70;;;;;;5054350;28;19909;-79
2022/07/03 13:06:16;;;;;;;;;;;30.50;36.60;;;;;;5054942;28;19915;-78
2022/07/03 13:08:54;;;;;;;;;;;30.50;36.60;;;;;;5036871;28;19909;-79
2022/07/03 13:11:30;;;;;;;;;;;30.50;36.80;;;;;;5054304;28;19909;-80
2022/07/03 13:14:15;;;;;;;;;;;30.60;36.80;;;;;;5036396;28;19909;-78
2022/07/03 13:16:42;;;;;;;;;;;30.70;35.30;;;;;;5053987;28;20031;-78
2022/07/03 13:19:08;;;;;;;;;;;30.80;36.10;;;;;;5053930;28;19920;-78
2022/07/03 13:21:34;;;;;;;;;;;31.00;36.00;;;;;;5036095;28;19933;-77
2022/07/03 13:24:00;;;;;;;;;;;31.10;35.90;;;;;;5054316;28;19913;-79
2022/07/03 13:26:26;;;;;;;;;;;31.10;34.80;;;;;;5056202;28;19913;-79
2022/07/03 13:28:51;;;;;;;;;;;31.20;35.70;;;;;;5020069;28;19909;-79
2022/07/03 13:31:17;;;;;;;;;;;31.10;35.80;;;;;;5035830;28;19909;-79
2022/07/03 13:33:43;;;;;;;;;;;31.20;35.40;;;;;;5053816;28;20004;-78
2022/07/03 13:36:08;;;;;;;;;;;31.40;35.90;;;;;;5055252;28;19920;-79
2022/07/03 13:38:34;;;;;;;;;;;31.70;35.80;;;;;;5058093;28;19920;-79
2022/07/03 13:40:59;;;;;;;;;;;31.10;35.30;;;;;;5058304;28;19909;-78
2022/07/03 13:43:25;;;;;;;;;;;32.70;35.50;;;;;;5039873;28;19908;-78
2022/07/03 13:45:50;;;;;;;;;;;33.30;34.60;;;;;;5058070;28;19913;-80
2022/07/03 13:48:16;;;;;;;;;;;34.00;34.80;;;;;;5039990;28;20078;-79
2022/07/03 13:50:42;;;;;;;;;;;34.70;34.30;;;;;;5040035;28;19909;-79
2022/07/03 13:53:07;;;;;;;;;;;35.50;34.10;;;;;;5058074;28;19909;-79
2022/07/03 13:55:33;;;;;;;;;;;36.20;34.60;;;;;;5057754;28;19908;-78
2022/07/03 13:57:58;;;;;;;;;;;36.70;34.60;;;;;;5058038;28;19917;-79
2022/07/03 14:00:24;;;;;;;;;;;37.10;34.00;;;;;;5057430;28;19916;-80
2022/07/03 14:02:49;;;;;;;;;;;37.50;34.00;;;;;;5057940;28;20271;-79
2022/07/03 14:05:15;;;;;;;;;;;37.70;33.80;;;;;;5057487;28;20008;-79
2022/07/03 14:07:41;;;;;;;;;;;37.80;33.80;;;;;;5057113;28;19920;-79
2022/07/03 14:10:06;;;;;;;;;;;38.00;33.10;;;;;;5058415;28;19991;-79
2022/07/03 14:12:32;;;;;;;;;;;38.30;34.00;;;;;;5058201;28;19909;-79
2022/07/03 14:14:58;;;;;;;;;;;38.70;34.00;;;;;;5057245;28;20009;-79
2022/07/03 14:17:23;;;;;;;;;;;39.20;33.50;;;;;;5057301;28;19913;-80
2022/07/03 14:19:49;;;;;;;;;;;39.80;34.10;;;;;;5057282;28;19908;-79
2022/07/03 14:22:14;;;;;;;;;;;40.30;33.90;;;;;;5057028;28;20274;-78
2022/07/03 14:24:40;;;;;;;;;;;40.50;32.00;;;;;;5039509;28;19909;-79
2022/07/03 14:32:34;;;;;;;;;;;39.40;32.50;;;;;;5056693;28;19955;-78
2022/07/03 14:35:00;;;;;;;;;;;39.10;32.70;;;;;;5056576;28;19947;-79
2022/07/03 14:37:26;;;;;;;;;;;39.30;33.10;;;;;;5056532;28;19921;-79